Time;durP1;ratioP1;P1;durP2;ratioP2;P2;SDS_P1;SDS_P2;PMS_P1;PMS_P2;Temp;Humidity;BMP_temperature;BMP_pressure;BME280_temperature;BME280_humidity;BME280_pressure;Samples;Min_cycle;Max_cycle;Signal;HPM_P1;HPM_P2
2023/01/04 00:02:04;;;;;;;;;;;24.40;76.20;;;;;;6215010;23;19934;-74
2023/01/04 00:04:30;;;;;;;;;;;24.50;75.80;;;;;;6214966;23;20354;-74
2023/01/04 00:06:57;;;;;;;;;;;24.50;76.30;;;;;;6214653;23;19904;-74
2023/01/04 00:09:24;;;;;;;;;;;24.50;75.70;;;;;;6214780;23;19916;-74
2023/01/04 00:11:50;;;;;;;;;;;24.50;75.80;;;;;;6214600;23;19919;-74
2023/01/04 00:14:17;;;;;;;;;;;24.40;76.20;;;;;;6214839;23;19912;-74
2023/01/04 00:16:44;;;;;;;;;;;24.50;75.40;;;;;;6214817;23;19911;-73
2023/01/04 00:19:11;;;;;;;;;;;24.50;75.90;;;;;;6214605;23;20283;-74
2023/01/04 00:21:38;;;;;;;;;;;24.50;76.10;;;;;;6214899;23;19904;-74
2023/01/04 00:24:05;;;;;;;;;;;24.50;76.10;;;;;;6214902;23;20246;-74
2023/01/04 00:26:32;;;;;;;;;;;24.50;76.90;;;;;;6214835;23;20311;-73
2023/01/04 00:28:59;;;;;;;;;;;24.50;76.70;;;;;;6214842;23;19912;-74
2023/01/04 00:31:26;;;;;;;;;;;24.50;76.60;;;;;;6214959;23;19955;-74
2023/01/04 00:33:53;;;;;;;;;;;24.40;77.00;;;;;;6214863;23;19919;-73
2023/01/04 00:36:20;;;;;;;;;;;24.50;76.10;;;;;;6214786;23;19904;-73
2023/01/04 00:38:46;;;;;;;;;;;24.40;76.30;;;;;;6214590;23;20374;-73
2023/01/04 00:41:13;;;;;;;;;;;24.40;76.40;;;;;;6214681;23;19908;-73
2023/01/04 00:43:40;;;;;;;;;;;24.50;77.30;;;;;;6214697;23;20320;-73
2023/01/04 00:46:10;;;;;;;;;;;24.40;77.20;;;;;;6214597;23;19904;-73
2023/01/04 00:48:37;;;;;;;;;;;24.50;78.30;;;;;;6214321;23;19979;-73
2023/01/04 00:51:04;;;;;;;;;;;24.50;77.70;;;;;;6214257;23;19904;-73
2023/01/04 00:53:30;;;;;;;;;;;24.40;77.40;;;;;;6215663;23;19951;-73
2023/01/04 00:56:00;;;;;;;;;;;24.40;77.40;;;;;;6216532;23;19908;-73
2023/01/04 00:58:27;;;;;;;;;;;24.30;78.20;;;;;;6216568;23;19904;-73
2023/01/04 01:00:53;;;;;;;;;;;24.30;79.40;;;;;;6216550;23;19903;-73
2023/01/04 01:03:20;;;;;;;;;;;24.20;79.70;;;;;;6216442;23;19966;-73
2023/01/04 01:05:46;;;;;;;;;;;24.20;79.80;;;;;;6216975;23;19915;-74
2023/01/04 01:08:25;;;;;;;;;;;24.20;79.70;;;;;;6216097;23;20350;-74
2023/01/04 01:10:52;;;;;;;;;;;24.10;79.80;;;;;;6216204;23;19904;-73
2023/01/04 01:13:19;;;;;;;;;;;24.00;80.50;;;;;;6216000;23;20342;-73
2023/01/04 01:15:46;;;;;;;;;;;24.00;81.00;;;;;;6216724;23;19904;-73
2023/01/04 01:18:12;;;;;;;;;;;23.90;80.60;;;;;;6216275;23;20263;-73
2023/01/04 01:20:43;;;;;;;;;;;23.90;81.10;;;;;;6214695;23;20304;-73
2023/01/04 01:23:11;;;;;;;;;;;23.80;81.10;;;;;;6216177;23;20286;-74
2023/01/04 01:25:37;;;;;;;;;;;23.70;80.80;;;;;;6216406;23;19904;-73
2023/01/04 01:28:04;;;;;;;;;;;23.60;81.50;;;;;;6216426;23;19904;-73
2023/01/04 01:30:31;;;;;;;;;;;23.50;81.90;;;;;;6215969;23;20239;-74
2023/01/04 01:32:57;;;;;;;;;;;23.40;82.70;;;;;;6216158;23;19912;-74
2023/01/04 01:35:24;;;;;;;;;;;23.50;82.80;;;;;;6215998;23;19926;-74
2023/01/04 01:37:50;;;;;;;;;;;23.30;82.90;;;;;;6215955;23;19910;-74
2023/01/04 01:40:17;;;;;;;;;;;23.40;83.00;;;;;;6216067;23;20381;-73
2023/01/04 01:42:44;;;;;;;;;;;23.30;83.10;;;;;;6216209;23;20354;-74
2023/01/04 01:45:25;;;;;;;;;;;23.40;83.50;;;;;;6216033;23;19977;-73
2023/01/04 01:47:52;;;;;;;;;;;23.40;83.00;;;;;;6216148;23;19904;-73
2023/01/04 01:50:24;;;;;;;;;;;23.50;83.20;;;;;;6216562;23;19931;-73
2023/01/04 01:52:50;;;;;;;;;;;23.60;82.40;;;;;;6214264;23;20220;-74
2023/01/04 01:55:18;;;;;;;;;;;23.80;81.90;;;;;;6214474;23;19904;-73
2023/01/04 01:57:44;;;;;;;;;;;23.70;82.20;;;;;;6215998;23;19911;-73
2023/01/04 02:00:12;;;;;;;;;;;23.70;82.20;;;;;;6214513;23;19954;-74
2023/01/04 02:02:40;;;;;;;;;;;23.70;82.60;;;;;;6215790;23;19904;-74
2023/01/04 02:05:07;;;;;;;;;;;23.70;83.60;;;;;;6214001;23;19911;-73
2023/01/04 02:07:34;;;;;;;;;;;23.70;81.90;;;;;;6215711;23;19916;-73
2023/01/04 02:10:00;;;;;;;;;;;23.70;82.40;;;;;;6215449;23;19908;-73
2023/01/04 02:12:27;;;;;;;;;;;23.70;83.10;;;;;;6214200;23;19908;-73
2023/01/04 02:14:53;;;;;;;;;;;23.70;83.20;;;;;;6214189;23;19904;-73
2023/01/04 02:17:26;;;;;;;;;;;23.80;83.00;;;;;;6215925;23;19919;-74
2023/01/04 02:19:58;;;;;;;;;;;23.80;83.30;;;;;;6215802;23;19934;-73
2023/01/04 02:22:40;;;;;;;;;;;23.80;83.50;;;;;;6215569;23;19904;-73
2023/01/04 02:25:16;;;;;;;;;;;23.70;82.40;;;;;;6215829;23;19923;-73
2023/01/04 02:27:54;;;;;;;;;;;23.80;83.40;;;;;;6215715;23;19965;-73
2023/01/04 02:30:39;;;;;;;;;;;23.90;82.90;;;;;;6213987;23;19986;-73
2023/01/04 02:33:24;;;;;;;;;;;24.00;83.50;;;;;;6215556;23;19919;-73
2023/01/04 02:35:56;;;;;;;;;;;23.90;81.30;;;;;;6215419;23;20255;-73
2023/01/04 02:38:38;;;;;;;;;;;24.00;82.90;;;;;;6215607;23;19908;-74
2023/01/04 02:41:08;;;;;;;;;;;23.90;82.20;;;;;;6215460;23;19904;-74
2023/01/04 02:46:24;;;;;;;;;;;23.60;83.40;;;;;;6213936;23;20011;-74
2023/01/04 02:51:36;;;;;;;;;;;23.50;83.50;;;;;;6215491;23;19910;-74
2023/01/04 02:54:04;;;;;;;;;;;23.60;84.30;;;;;;6215184;23;19919;-73
2023/01/04 02:56:36;;;;;;;;;;;23.50;84.10;;;;;;6213646;23;19927;-73
2023/01/04 02:59:15;;;;;;;;;;;23.50;83.90;;;;;;6215283;23;19934;-73
2023/01/04 03:07:25;;;;;;;;;;;23.50;83.70;;;;;;6214987;23;19919;-74
2023/01/04 03:09:53;;;;;;;;;;;23.30;84.20;;;;;;6213827;23;19904;-73
2023/01/04 03:12:32;;;;;;;;;;;23.30;84.60;;;;;;6213573;23;19916;-74
2023/01/04 03:15:01;;;;;;;;;;;23.30;84.70;;;;;;6215188;23;19907;-73
2023/01/04 03:17:30;;;;;;;;;;;23.20;84.60;;;;;;6212973;23;20240;-74
2023/01/04 03:19:57;;;;;;;;;;;23.20;84.90;;;;;;6214999;23;20247;-73
2023/01/04 03:36:20;;;;;;;;;;;23.10;85.10;;;;;;6214870;23;19951;-74
2023/01/04 03:50:40;;;;;;;;;;;22.80;86.50;;;;;;6214723;23;19911;-74
2023/01/04 03:53:07;;;;;;;;;;;22.70;88.40;;;;;;6212900;23;19912;-73
2023/01/04 03:55:34;;;;;;;;;;;22.60;89.80;;;;;;6214918;23;19907;-74
2023/01/04 03:58:01;;;;;;;;;;;22.30;90.80;;;;;;6213493;23;19991;-75
2023/01/04 04:00:28;;;;;;;;;;;22.20;91.50;;;;;;6215089;23;20294;-75
2023/01/04 04:03:05;;;;;;;;;;;22.00;92.10;;;;;;6213334;23;19987;-74
2023/01/04 04:08:27;;;;;;;;;;;21.80;92.90;;;;;;6214692;23;19982;-74
2023/01/04 04:13:48;;;;;;;;;;;21.70;93.40;;;;;;6214554;23;19918;-73
2023/01/04 04:16:15;;;;;;;;;;;21.70;93.70;;;;;;6215009;23;19908;-75
2023/01/04 04:18:42;;;;;;;;;;;21.70;93.40;;;;;;6214880;23;19904;-74
2023/01/04 04:21:08;;;;;;;;;;;21.70;93.50;;;;;;6214834;23;19911;-73
2023/01/04 04:23:35;;;;;;;;;;;21.70;93.50;;;;;;6215032;23;20319;-74
2023/01/04 04:26:02;;;;;;;;;;;21.70;93.50;;;;;;6214863;23;19939;-75
2023/01/04 04:28:28;;;;;;;;;;;21.80;93.10;;;;;;6215802;23;20350;-75
2023/01/04 04:30:55;;;;;;;;;;;21.80;92.90;;;;;;6216378;23;19904;-74
2023/01/04 04:33:21;;;;;;;;;;;21.80;92.80;;;;;;6216839;23;19920;-74
2023/01/04 04:35:51;;;;;;;;;;;21.80;92.80;;;;;;6216844;23;19915;-74
2023/01/04 04:38:18;;;;;;;;;;;21.90;92.60;;;;;;6216873;23;19916;-73
2023/01/04 04:43:29;;;;;;;;;;;22.00;92.60;;;;;;6216853;23;20350;-74
2023/01/04 04:45:56;;;;;;;;;;;22.00;92.30;;;;;;6216543;23;19904;-74
2023/01/04 04:48:22;;;;;;;;;;;21.90;91.40;;;;;;6216776;23;19904;-74
2023/01/04 04:50:49;;;;;;;;;;;21.90;91.80;;;;;;6216835;23;19907;-74
2023/01/04 04:53:16;;;;;;;;;;;22.00;91.80;;;;;;6216131;23;19958;-74
2023/01/04 04:55:42;;;;;;;;;;;21.90;91.60;;;;;;6216500;23;19915;-73
2023/01/04 04:58:09;;;;;;;;;;;21.90;91.50;;;;;;6216252;23;20235;-74
2023/01/04 05:00:35;;;;;;;;;;;21.80;91.20;;;;;;6217043;23;20362;-74
2023/01/04 05:03:02;;;;;;;;;;;21.80;91.50;;;;;;6216727;23;19910;-73
2023/01/04 05:05:29;;;;;;;;;;;21.80;92.00;;;;;;6216337;23;19959;-73
2023/01/04 05:07:55;;;;;;;;;;;21.90;91.90;;;;;;6216273;23;19962;-74
2023/01/04 05:10:22;;;;;;;;;;;21.80;91.70;;;;;;6216371;23;19904;-74
2023/01/04 05:13:00;;;;;;;;;;;21.80;91.40;;;;;;6216326;23;19908;-74
2023/01/04 05:15:27;;;;;;;;;;;21.70;91.80;;;;;;6216264;23;19904;-74
2023/01/04 05:17:54;;;;;;;;;;;21.60;91.30;;;;;;6216530;23;19962;-74
2023/01/04 05:20:20;;;;;;;;;;;21.60;91.30;;;;;;6216254;23;19958;-73
2023/01/04 05:22:47;;;;;;;;;;;21.50;91.40;;;;;;6217052;23;19950;-74
2023/01/04 05:25:13;;;;;;;;;;;21.50;91.70;;;;;;6216123;23;19916;-74
2023/01/04 05:27:40;;;;;;;;;;;21.60;92.00;;;;;;6216825;23;19943;-74
2023/01/04 05:32:51;;;;;;;;;;;21.50;91.00;;;;;;6216292;23;20281;-74
2023/01/04 05:35:18;;;;;;;;;;;21.50;91.70;;;;;;6215740;23;19911;-74
2023/01/04 05:37:44;;;;;;;;;;;21.50;91.40;;;;;;6216277;23;19907;-74
2023/01/04 05:40:11;;;;;;;;;;;21.50;91.40;;;;;;6215658;23;20247;-73
2023/01/04 05:42:38;;;;;;;;;;;21.50;91.30;;;;;;6216352;23;19911;-74
2023/01/04 05:45:04;;;;;;;;;;;21.50;90.70;;;;;;6216078;23;19904;-75
2023/01/04 05:47:31;;;;;;;;;;;21.40;91.10;;;;;;6215885;23;19915;-73
2023/01/04 05:49:58;;;;;;;;;;;21.30;90.80;;;;;;6216222;23;20278;-73
2023/01/04 05:52:24;;;;;;;;;;;21.30;91.20;;;;;;6216043;23;19994;-74
2023/01/04 05:54:51;;;;;;;;;;;21.20;90.30;;;;;;6216786;23;19912;-73
2023/01/04 05:57:18;;;;;;;;;;;21.20;90.80;;;;;;6215800;23;19904;-74
2023/01/04 05:59:44;;;;;;;;;;;21.20;91.00;;;;;;6215747;23;19911;-73
2023/01/04 06:02:15;;;;;;;;;;;21.20;90.70;;;;;;6215745;23;19911;-73
2023/01/04 06:04:42;;;;;;;;;;;21.20;91.00;;;;;;6214187;23;19904;-74
2023/01/04 06:07:08;;;;;;;;;;;21.20;90.80;;;;;;6215929;23;20323;-74
2023/01/04 06:09:35;;;;;;;;;;;21.10;90.50;;;;;;6215885;23;19916;-74
2023/01/04 06:12:01;;;;;;;;;;;21.10;90.00;;;;;;6215326;23;20235;-73
2023/01/04 06:14:28;;;;;;;;;;;21.10;90.40;;;;;;6216026;23;19908;-73
2023/01/04 06:16:55;;;;;;;;;;;21.00;90.40;;;;;;6215974;23;19904;-73
2023/01/04 06:19:21;;;;;;;;;;;21.00;90.80;;;;;;6215445;23;19958;-74
2023/01/04 06:21:48;;;;;;;;;;;21.00;90.80;;;;;;6215985;23;19974;-74
2023/01/04 06:24:14;;;;;;;;;;;20.90;90.40;;;;;;6215901;23;19908;-73
2023/01/04 06:26:41;;;;;;;;;;;21.00;91.30;;;;;;6215931;23;19904;-73
2023/01/04 06:29:08;;;;;;;;;;;21.00;91.00;;;;;;6215591;23;20236;-73
2023/01/04 06:31:34;;;;;;;;;;;21.00;91.30;;;;;;6189590;23;19904;-74
2023/01/04 06:34:01;;;;;;;;;;;21.00;91.30;;;;;;6215762;23;19944;-74
2023/01/04 06:36:28;;;;;;;;;;;21.00;90.90;;;;;;6215870;23;19982;-73
2023/01/04 06:38:56;;;;;;;;;;;21.00;91.30;;;;;;6215915;23;19904;-73
2023/01/04 06:41:23;;;;;;;;;;;20.80;91.10;;;;;;6215208;23;19912;-74
2023/01/04 06:43:49;;;;;;;;;;;20.80;91.40;;;;;;6215716;23;19935;-74
2023/01/04 06:46:16;;;;;;;;;;;20.70;91.40;;;;;;6215246;23;19919;-75
2023/01/04 06:48:42;;;;;;;;;;;20.60;91.40;;;;;;6215762;23;19991;-73
2023/01/04 06:51:09;;;;;;;;;;;20.60;91.50;;;;;;6213546;23;19986;-74
2023/01/04 06:53:36;;;;;;;;;;;20.50;92.30;;;;;;6213554;23;19912;-78
2023/01/04 06:56:02;;;;;;;;;;;20.60;92.20;;;;;;6213299;23;19908;-79
2023/01/04 06:58:29;;;;;;;;;;;20.50;92.00;;;;;;6213493;23;19938;-77
2023/01/04 07:00:56;;;;;;;;;;;20.50;92.10;;;;;;6213050;23;19975;-75
2023/01/04 07:03:23;;;;;;;;;;;20.40;92.50;;;;;;6214879;23;19904;-76
2023/01/04 07:05:49;;;;;;;;;;;20.40;92.40;;;;;;6214556;23;19994;-75
2023/01/04 07:08:16;;;;;;;;;;;20.40;92.80;;;;;;6215006;23;19938;-73
2023/01/04 07:10:43;;;;;;;;;;;20.50;93.00;;;;;;6214849;23;19930;-74
2023/01/04 07:13:09;;;;;;;;;;;20.30;92.70;;;;;;6213591;23;19918;-75
2023/01/04 07:15:36;;;;;;;;;;;20.40;92.90;;;;;;6215142;23;19957;-73
2023/01/04 07:18:02;;;;;;;;;;;20.40;92.70;;;;;;6214815;23;20387;-74
2023/01/04 07:20:29;;;;;;;;;;;20.30;92.90;;;;;;6214916;23;19932;-73
2023/01/04 07:22:56;;;;;;;;;;;20.30;92.80;;;;;;6214935;23;19904;-73
2023/01/04 07:25:22;;;;;;;;;;;20.30;92.90;;;;;;6214534;23;19950;-74
2023/01/04 07:27:52;;;;;;;;;;;20.30;93.00;;;;;;6214869;23;20205;-74
2023/01/04 07:30:19;;;;;;;;;;;20.30;92.80;;;;;;6214510;23;19979;-76
2023/01/04 07:32:46;;;;;;;;;;;20.30;92.50;;;;;;6211520;23;19979;-75
2023/01/04 07:35:12;;;;;;;;;;;20.30;93.10;;;;;;6211666;23;19923;-75
2023/01/04 07:37:39;;;;;;;;;;;20.30;92.40;;;;;;6208907;23;19919;-71
2023/01/04 07:40:06;;;;;;;;;;;20.20;92.40;;;;;;6210687;23;19911;-70
2023/01/04 07:42:32;;;;;;;;;;;20.20;92.70;;;;;;6209874;23;20267;-71
2023/01/04 07:44:59;;;;;;;;;;;20.30;92.70;;;;;;6211547;23;19916;-70
2023/01/04 07:47:26;;;;;;;;;;;20.30;92.70;;;;;;6211367;23;19907;-70
2023/01/04 07:49:53;;;;;;;;;;;20.40;92.60;;;;;;6211581;23;20296;-72
2023/01/04 07:52:20;;;;;;;;;;;20.50;92.30;;;;;;6211406;23;19944;-72
2023/01/04 07:54:46;;;;;;;;;;;20.50;92.40;;;;;;6211451;23;19978;-70
2023/01/04 07:57:13;;;;;;;;;;;20.50;91.80;;;;;;6211442;23;19915;-70
2023/01/04 07:59:40;;;;;;;;;;;20.50;91.80;;;;;;6211882;23;19907;-70
2023/01/04 08:02:08;;;;;;;;;;;20.50;91.80;;;;;;6211089;23;19904;-70
2023/01/04 08:04:35;;;;;;;;;;;20.50;92.00;;;;;;6209656;23;19982;-70
2023/01/04 08:07:02;;;;;;;;;;;20.50;92.00;;;;;;6211651;23;19907;-71
2023/01/04 08:09:28;;;;;;;;;;;20.50;91.70;;;;;;6208115;23;19920;-71
2023/01/04 08:11:55;;;;;;;;;;;20.50;91.60;;;;;;6210944;23;19994;-72
2023/01/04 08:14:22;;;;;;;;;;;20.40;91.10;;;;;;6211515;23;19987;-71
2023/01/04 08:16:48;;;;;;;;;;;20.40;91.50;;;;;;6211497;23;19911;-72
2023/01/04 08:19:19;;;;;;;;;;;20.40;91.30;;;;;;6211182;23;19954;-72
2023/01/04 08:21:46;;;;;;;;;;;20.30;90.90;;;;;;6210318;23;19904;-72
2023/01/04 08:24:13;;;;;;;;;;;20.40;91.60;;;;;;6210962;23;19904;-71
2023/01/04 08:26:40;;;;;;;;;;;20.40;91.60;;;;;;6211499;23;19911;-71
2023/01/04 08:29:06;;;;;;;;;;;20.40;91.40;;;;;;6211457;23;19904;-71
2023/01/04 08:31:33;;;;;;;;;;;20.40;91.00;;;;;;6209860;23;20300;-70
2023/01/04 08:34:03;;;;;;;;;;;20.40;90.90;;;;;;6211305;23;19926;-70
2023/01/04 08:36:31;;;;;;;;;;;20.40;91.20;;;;;;6209004;23;19918;-71
2023/01/04 08:38:58;;;;;;;;;;;20.30;90.70;;;;;;6211356;23;19911;-71
2023/01/04 08:41:25;;;;;;;;;;;20.30;90.90;;;;;;6209626;23;19908;-70
2023/01/04 08:43:51;;;;;;;;;;;20.40;90.40;;;;;;6211489;23;19979;-72
2023/01/04 08:46:18;;;;;;;;;;;20.40;90.50;;;;;;6211328;23;20018;-72
2023/01/04 08:48:44;;;;;;;;;;;20.50;90.60;;;;;;6211056;23;20170;-70
2023/01/04 08:51:12;;;;;;;;;;;20.40;90.30;;;;;;6211116;23;19915;-70
2023/01/04 08:53:38;;;;;;;;;;;20.40;90.80;;;;;;6210427;23;19975;-70
2023/01/04 08:56:06;;;;;;;;;;;20.40;90.70;;;;;;6211105;23;20332;-70
2023/01/04 08:58:33;;;;;;;;;;;20.40;90.30;;;;;;6210927;23;20338;-71
2023/01/04 09:01:03;;;;;;;;;;;20.40;90.40;;;;;;6210702;23;20290;-71
2023/01/04 09:03:30;;;;;;;;;;;20.40;90.00;;;;;;6211008;23;19940;-72
2023/01/04 09:06:08;;;;;;;;;;;20.20;90.10;;;;;;6211136;23;19995;-72
2023/01/04 09:08:34;;;;;;;;;;;20.20;90.40;;;;;;6210939;23;19916;-72
2023/01/04 09:11:04;;;;;;;;;;;20.20;90.30;;;;;;6210934;23;20238;-71
2023/01/04 09:13:32;;;;;;;;;;;20.10;90.10;;;;;;6211221;23;20354;-72
2023/01/04 09:16:05;;;;;;;;;;;20.10;90.30;;;;;;6212175;23;19915;-72
2023/01/04 09:18:32;;;;;;;;;;;20.10;90.50;;;;;;6213305;23;19954;-72
2023/01/04 09:21:01;;;;;;;;;;;20.20;90.60;;;;;;6212933;23;19940;-72
2023/01/04 09:23:28;;;;;;;;;;;20.10;90.40;;;;;;6213096;23;19908;-72
2023/01/04 09:25:54;;;;;;;;;;;20.10;90.60;;;;;;6213356;23;19914;-71
2023/01/04 09:28:21;;;;;;;;;;;20.10;90.20;;;;;;6212962;23;19911;-71
2023/01/04 09:30:48;;;;;;;;;;;20.10;90.40;;;;;;6212811;23;19911;-70
2023/01/04 09:33:14;;;;;;;;;;;20.10;90.60;;;;;;6212659;23;19920;-68
2023/01/04 09:35:41;;;;;;;;;;;20.10;90.40;;;;;;6212712;23;20414;-71
2023/01/04 09:38:07;;;;;;;;;;;20.10;90.60;;;;;;6210560;23;20393;-72
2023/01/04 09:40:40;;;;;;;;;;;20.00;90.60;;;;;;6212125;23;20420;-72
2023/01/04 09:43:10;;;;;;;;;;;19.90;91.20;;;;;;6210826;23;20287;-73
2023/01/04 09:45:37;;;;;;;;;;;19.80;91.30;;;;;;6211276;23;19907;-72
2023/01/04 09:48:04;;;;;;;;;;;19.80;91.40;;;;;;6210719;23;19915;-72
2023/01/04 09:50:31;;;;;;;;;;;19.70;91.30;;;;;;6210858;23;19990;-72
2023/01/04 09:53:24;;;;;;;;;;;19.70;91.90;;;;;;6210627;23;19912;-71
2023/01/04 09:55:51;;;;;;;;;;;19.70;91.80;;;;;;6209471;23;19934;-72
2023/01/04 09:58:27;;;;;;;;;;;19.70;91.60;;;;;;6210912;23;19936;-70
2023/01/04 10:01:14;;;;;;;;;;;19.80;91.30;;;;;;6212722;23;19911;-72
2023/01/04 10:04:00;;;;;;;;;;;19.70;91.40;;;;;;6212135;23;19962;-71
2023/01/04 10:06:27;;;;;;;;;;;19.80;91.50;;;;;;6180462;23;19931;-72
2023/01/04 10:08:54;;;;;;;;;;;19.80;91.40;;;;;;6211870;23;20234;-71
2023/01/04 10:11:32;;;;;;;;;;;19.70;90.90;;;;;;6210558;23;19907;-71
2023/01/04 10:13:59;;;;;;;;;;;19.80;91.30;;;;;;6212140;23;20236;-71
2023/01/04 10:16:38;;;;;;;;;;;19.70;91.10;;;;;;6213310;23;19908;-70
2023/01/04 10:19:17;;;;;;;;;;;19.70;91.30;;;;;;6212734;23;19908;-69
2023/01/04 10:21:45;;;;;;;;;;;19.70;91.10;;;;;;6210599;23;20323;-70
2023/01/04 10:24:18;;;;;;;;;;;19.70;91.00;;;;;;6211111;23;19986;-70
2023/01/04 10:26:45;;;;;;;;;;;19.80;90.40;;;;;;6212190;23;19912;-69
2023/01/04 10:29:30;;;;;;;;;;;19.80;90.90;;;;;;6212533;23;19998;-70
2023/01/04 10:31:56;;;;;;;;;;;19.80;89.50;;;;;;6212362;23;19993;-70
2023/01/04 10:34:24;;;;;;;;;;;19.80;89.80;;;;;;6212047;23;19990;-71
2023/01/04 10:36:51;;;;;;;;;;;19.80;89.90;;;;;;6208337;23;19959;-70
2023/01/04 10:39:18;;;;;;;;;;;19.80;89.40;;;;;;6213279;23;19926;-70
2023/01/04 10:41:55;;;;;;;;;;;19.80;89.30;;;;;;6213847;23;19904;-72
2023/01/04 10:44:24;;;;;;;;;;;19.80;89.30;;;;;;6214857;23;19904;-73
2023/01/04 10:47:00;;;;;;;;;;;19.80;89.50;;;;;;6212155;23;19904;-72
2023/01/04 10:49:49;;;;;;;;;;;19.70;89.20;;;;;;6211884;23;20336;-72
2023/01/04 10:52:20;;;;;;;;;;;19.70;89.40;;;;;;6206562;23;19915;-72
2023/01/04 10:54:47;;;;;;;;;;;19.70;89.20;;;;;;6213334;23;19912;-72
2023/01/04 10:57:23;;;;;;;;;;;19.70;89.50;;;;;;6215321;23;19904;-73
2023/01/04 11:00:04;;;;;;;;;;;19.70;89.40;;;;;;6214244;23;20349;-71
2023/01/04 11:02:40;;;;;;;;;;;19.70;89.10;;;;;;6213163;23;19903;-72
2023/01/04 11:05:19;;;;;;;;;;;19.70;89.00;;;;;;6215124;23;19915;-72
2023/01/04 11:07:49;;;;;;;;;;;19.70;88.70;;;;;;6218545;23;19912;-71
2023/01/04 11:10:38;;;;;;;;;;;19.70;88.30;;;;;;6245393;23;19911;-72
2023/01/04 11:13:05;;;;;;;;;;;19.50;88.20;;;;;;6229159;23;20314;-71
2023/01/04 11:15:31;;;;;;;;;;;19.60;89.10;;;;;;6244848;23;19911;-72
2023/01/04 11:18:00;;;;;;;;;;;19.60;88.30;;;;;;6244882;23;19904;-71
2023/01/04 11:20:26;;;;;;;;;;;19.50;87.50;;;;;;6216795;23;19990;-72
2023/01/04 11:23:13;;;;;;;;;;;19.50;87.60;;;;;;6217320;23;20664;-72
2023/01/04 19:54:26;;;;;;;;;;;17.60;93.60;;;;;;6302922;22;20381;-75
2023/01/04 19:56:52;;;;;;;;;;;17.60;93.10;;;;;;6305840;22;19911;-73
2023/01/04 19:59:19;;;;;;;;;;;17.70;93.10;;;;;;6305424;22;19911;-75
2023/01/04 20:01:46;;;;;;;;;;;17.60;92.80;;;;;;6276780;22;20257;-73
2023/01/04 20:04:12;;;;;;;;;;;17.60;92.70;;;;;;6306218;22;19907;-74
2023/01/04 20:06:39;;;;;;;;;;;17.60;93.20;;;;;;6305798;22;19983;-73
2023/01/04 20:09:06;;;;;;;;;;;17.70;93.30;;;;;;6304899;22;19911;-73
2023/01/04 20:11:32;;;;;;;;;;;17.60;93.50;;;;;;6306203;22;19907;-74
2023/01/04 20:13:59;;;;;;;;;;;17.70;93.80;;;;;;6305821;22;20362;-75
2023/01/04 20:16:26;;;;;;;;;;;17.70;93.40;;;;;;6306457;22;19974;-76
2023/01/04 20:18:56;;;;;;;;;;;17.70;93.30;;;;;;6306249;22;20400;-74
2023/01/04 20:21:22;;;;;;;;;;;17.80;93.20;;;;;;6305142;22;20237;-75
2023/01/04 20:23:49;;;;;;;;;;;17.70;92.70;;;;;;6305560;22;20234;-76
2023/01/04 20:26:16;;;;;;;;;;;17.70;92.50;;;;;;6304898;22;19945;-76
2023/01/04 20:28:44;;;;;;;;;;;17.70;92.00;;;;;;6305282;22;20270;-74
2023/01/04 20:31:12;;;;;;;;;;;17.70;91.90;;;;;;6278249;22;19903;-75
2023/01/04 20:33:38;;;;;;;;;;;17.70;92.00;;;;;;6304764;22;20458;-74
2023/01/04 20:36:06;;;;;;;;;;;17.70;92.70;;;;;;6305873;22;19907;-74
2023/01/04 20:38:37;;;;;;;;;;;17.60;93.20;;;;;;6305940;22;19906;-75
2023/01/04 20:41:03;;;;;;;;;;;17.50;94.00;;;;;;6306145;22;20222;-75
2023/01/04 20:43:34;;;;;;;;;;;17.50;94.30;;;;;;6306193;22;19910;-75
2023/01/04 20:46:01;;;;;;;;;;;17.50;94.70;;;;;;6279569;22;19910;-76
2023/01/04 20:48:28;;;;;;;;;;;17.50;95.00;;;;;;6305095;22;19907;-77
2023/01/04 20:50:55;;;;;;;;;;;17.50;95.00;;;;;;6304643;22;20396;-76
2023/01/04 23:06:10;;;;;;;;;;;19.30;77.70;;;;;;6237133;23;20293;-71
2023/01/04 23:08:36;;;;;;;;;;;19.30;78.10;;;;;;6244426;23;19962;-72
2023/01/04 23:11:06;;;;;;;;;;;19.40;77.50;;;;;;6245610;23;20278;-72
2023/01/04 23:13:33;;;;;;;;;;;19.30;77.90;;;;;;6244881;23;20271;-72
2023/01/04 23:16:04;;;;;;;;;;;19.30;78.00;;;;;;6244751;23;19966;-72
2023/01/04 23:18:31;;;;;;;;;;;19.30;77.30;;;;;;6244664;23;19904;-72
2023/01/04 23:20:58;;;;;;;;;;;19.20;77.80;;;;;;6244746;23;19907;-72
2023/01/04 23:23:24;;;;;;;;;;;19.10;78.30;;;;;;6244644;23;19910;-72
2023/01/04 23:25:51;;;;;;;;;;;19.10;78.10;;;;;;6243270;23;19931;-73
2023/01/04 23:28:17;;;;;;;;;;;19.10;77.60;;;;;;6242776;23;19903;-71
2023/01/04 23:30:44;;;;;;;;;;;19.10;77.90;;;;;;6243500;23;19951;-72
2023/01/04 23:33:11;;;;;;;;;;;19.10;77.30;;;;;;6244281;23;19918;-71
2023/01/04 23:35:37;;;;;;;;;;;19.00;77.00;;;;;;6244407;23;19914;-72
2023/01/04 23:38:04;;;;;;;;;;;19.00;79.00;;;;;;6243130;23;19912;-71
2023/01/04 23:40:30;;;;;;;;;;;18.90;80.00;;;;;;6243475;23;19903;-72
2023/01/04 23:42:58;;;;;;;;;;;18.80;80.30;;;;;;6242582;23;19943;-71
2023/01/04 23:45:25;;;;;;;;;;;18.90;79.00;;;;;;6243352;23;20366;-71
2023/01/04 23:47:52;;;;;;;;;;;18.90;77.80;;;;;;6244483;22;19932;-72
2023/01/04 23:50:20;;;;;;;;;;;19.00;78.20;;;;;;6218372;23;19990;-72
2023/01/04 23:52:47;;;;;;;;;;;19.20;78.00;;;;;;6244591;23;19958;-72
2023/01/04 23:55:14;;;;;;;;;;;19.20;75.90;;;;;;6244614;23;19912;-72
2023/01/04 23:57:40;;;;;;;;;;;19.30;75.70;;;;;;6244854;22;19958;-70
